Time;durP1;ratioP1;P1;durP2;ratioP2;P2;SDS_P1;SDS_P2;PMS_P1;PMS_P2;Temp;Humidity;BMP_temperature;BMP_pressure;BME280_temperature;BME280_humidity;BME280_pressure;Samples;Min_cycle;Max_cycle;Signal;HPM_P1;HPM_P2
2023/05/30 00:01:06;;;;;;;8.15;2.78;;;;;;;18.10;48.18;97614.66;4844733;29;20292;-76
2023/05/30 00:03:33;;;;;;;4.65;2.40;;;;;;;17.98;48.90;97611.66;4873663;28;20137;-76
2023/05/30 00:05:58;;;;;;;6.05;2.60;;;;;;;18.10;48.22;97611.25;4857071;29;20138;-77
2023/05/30 00:08:26;;;;;;;6.68;2.70;;;;;;;18.02;48.55;97612.66;4867348;28;20245;-77
2023/05/30 00:10:52;;;;;;;4.70;2.38;;;;;;;17.99;47.98;97615.06;4840159;29;20292;-77
2023/05/30 00:13:19;;;;;;;6.38;2.65;;;;;;;18.11;48.12;97620.72;4852967;28;20382;-75
2023/05/30 00:15:45;;;;;;;4.43;2.22;;;;;;;18.09;47.82;97618.34;4856848;29;20288;-77
2023/05/30 00:18:11;;;;;;;4.30;2.22;;;;;;;17.85;48.13;97628.09;4835203;29;20336;-76
2023/05/30 00:20:36;;;;;;;5.70;2.33;;;;;;;17.91;48.45;97625.16;4847538;29;20193;-75
2023/05/30 00:23:02;;;;;;;6.22;2.40;;;;;;;17.72;48.75;97619.81;4835162;28;20209;-76
2023/05/30 00:25:27;;;;;;;4.03;2.53;;;;;;;17.85;48.11;97614.94;4865927;28;20208;-77
2023/05/30 00:27:53;;;;;;;5.85;2.33;;;;;;;17.62;48.25;97627.03;4850357;28;20188;-76
2023/05/30 00:30:18;;;;;;;6.47;2.35;;;;;;;17.93;47.71;97616.97;4864880;28;20351;-77
2023/05/30 00:32:44;;;;;;;5.63;2.30;;;;;;;17.76;48.09;97620.81;4833800;29;20367;-77
2023/05/30 00:35:09;;;;;;;7.28;2.35;;;;;;;17.56;48.00;97618.38;4850552;28;20110;-76
2023/05/30 00:37:35;;;;;;;5.45;2.70;;;;;;;17.63;48.10;97625.94;4849011;29;20345;-76
2023/05/30 00:40:01;;;;;;;7.07;2.90;;;;;;;17.67;47.68;97621.72;4836847;28;20031;-77
2023/05/30 00:42:27;;;;;;;6.47;2.20;;;;;;;17.61;48.18;97620.97;4850359;29;20197;-76
2023/05/30 00:44:53;;;;;;;5.00;2.30;;;;;;;17.72;47.84;97617.16;4849478;29;20403;-77
2023/05/30 00:47:24;;;;;;;5.38;2.33;;;;;;;17.62;48.41;97617.28;4857231;28;20196;-77
2023/05/30 00:49:51;;;;;;;6.20;2.13;;;;;;;17.72;47.72;97614.53;4858504;29;20220;-77
2023/05/30 00:52:17;;;;;;;5.07;2.35;;;;;;;17.55;48.32;97611.56;4862362;28;20346;-77
2023/05/30 00:54:44;;;;;;;5.47;2.30;;;;;;;17.68;47.84;97610.09;4852361;29;20184;-78
2023/05/30 00:57:10;;;;;;;5.38;2.20;;;;;;;17.67;48.14;97600.66;4863026;28;20231;-76
2023/05/30 00:59:36;;;;;;;5.85;2.50;;;;;;;17.33;48.32;97606.75;4866355;29;20100;-75
2023/05/30 01:02:02;;;;;;;3.85;2.40;;;;;;;17.44;48.35;97602.97;4864731;28;20200;-77
2023/05/30 01:04:28;;;;;;;4.57;2.30;;;;;;;17.48;48.43;97597.91;4874655;23;20269;-81
2023/05/30 01:06:53;;;;;;;6.65;2.40;;;;;;;17.51;48.32;97600.00;4878675;28;20281;-79
2023/05/30 01:09:19;;;;;;;5.72;2.28;;;;;;;17.54;47.89;97604.72;4908381;28;20707;-79
2023/05/30 01:11:56;;;;;;;8.30;2.38;;;;;;;17.13;49.45;97602.44;4893223;28;20613;-79
2023/05/30 01:14:26;;;;;;;5.22;2.05;;;;;;;16.70;49.40;97602.22;4892639;28;20577;-78
2023/05/30 01:17:01;;;;;;;4.75;2.10;;;;;;;16.93;49.48;97601.56;4894544;28;20288;-79
2023/05/30 01:19:54;;;;;;;6.80;2.40;;;;;;;17.45;48.31;97609.03;4906189;28;20185;-81
2023/05/30 01:22:41;;;;;;;4.93;2.10;;;;;;;17.44;48.99;97608.22;4874507;28;20371;-78
2023/05/30 01:25:14;;;;;;;4.45;2.10;;;;;;;16.79;49.50;97611.09;4894819;28;20673;-81
2023/05/30 01:27:51;;;;;;;6.05;2.30;;;;;;;16.62;49.35;97609.63;4912435;28;20680;-79
2023/05/30 01:30:17;;;;;;;5.95;2.15;;;;;;;16.90;49.24;97602.09;4893475;28;20265;-79
2023/05/30 01:32:43;;;;;;;6.10;2.10;;;;;;;17.19;48.22;97598.72;4894649;28;20342;-79
2023/05/30 01:35:21;;;;;;;6.65;2.38;;;;;;;17.35;47.62;97597.50;4897445;28;20242;-78
2023/05/30 01:37:46;;;;;;;3.92;2.17;;;;;;;17.20;47.81;97595.81;4897127;28;20288;-79
2023/05/30 01:40:13;;;;;;;5.57;2.45;;;;;;;17.28;47.68;97596.28;4891838;28;20661;-78
2023/05/30 01:42:39;;;;;;;5.78;2.85;;;;;;;17.22;47.78;97600.78;4893162;28;20214;-79
2023/05/30 01:45:26;;;;;;;4.72;2.25;;;;;;;17.28;47.02;97602.31;4916711;28;20202;-79
2023/05/30 01:48:13;;;;;;;6.65;2.28;;;;;;;17.12;47.48;97587.72;4913305;28;20199;-79
2023/05/30 01:50:44;;;;;;;3.42;1.90;;;;;;;16.85;47.96;97596.88;4907874;28;20164;-82
2023/05/30 01:53:14;;;;;;;5.63;2.30;;;;;;;16.88;47.83;97598.97;4924050;28;20197;-79
2023/05/30 01:55:41;;;;;;;5.45;1.95;;;;;;;16.84;48.31;97598.75;4875650;28;20624;-80
2023/05/30 01:58:07;;;;;;;5.97;2.95;;;;;;;16.84;47.64;97593.47;4879409;28;20123;-79
2023/05/30 02:00:33;;;;;;;3.17;1.83;;;;;;;16.84;47.88;97592.66;4879385;28;20467;-79
2023/05/30 02:02:58;;;;;;;4.95;1.55;;;;;;;16.72;47.33;97592.22;4894187;28;20146;-78
2023/05/30 02:05:24;;;;;;;4.03;1.83;;;;;;;16.73;47.66;97585.91;4890350;28;20037;-79
2023/05/30 02:07:49;;;;;;;3.42;2.00;;;;;;;16.97;46.05;97586.00;4892116;28;20383;-79
2023/05/30 02:10:15;;;;;;;4.30;2.03;;;;;;;16.78;46.42;97585.88;4874363;28;20269;-80
2023/05/30 02:12:40;;;;;;;4.00;2.30;;;;;;;16.93;45.98;97575.25;4892936;28;20312;-79
2023/05/30 02:15:06;;;;;;;7.05;2.10;;;;;;;16.74;46.57;97590.09;4894370;28;20227;-79
2023/05/30 02:17:32;;;;;;;5.63;1.90;;;;;;;16.60;46.49;97588.06;4895309;28;20264;-80
2023/05/30 02:19:59;;;;;;;4.25;2.00;;;;;;;16.47;46.58;97591.31;4875488;28;20297;-80
2023/05/30 02:22:24;;;;;;;5.30;1.80;;;;;;;16.17;47.13;97594.88;4893935;28;20242;-80
2023/05/30 02:24:51;;;;;;;4.88;1.98;;;;;;;15.97;47.90;97580.78;4926221;28;20288;-79
2023/05/30 02:27:16;;;;;;;6.15;2.83;;;;;;;16.02;47.41;97595.72;4902395;28;20236;-79
2023/05/30 02:29:41;;;;;;;5.78;1.60;;;;;;;16.07;46.63;97585.19;4897160;28;20207;-79
2023/05/30 02:32:07;;;;;;;5.68;1.65;;;;;;;16.01;47.55;97596.81;4905786;28;20629;-80
2023/05/30 02:34:32;;;;;;;5.07;2.35;;;;;;;16.06;46.67;97594.94;4897593;28;20206;-78
2023/05/30 02:36:59;;;;;;;5.85;1.70;;;;;;;16.14;46.26;97590.94;4908229;28;20290;-79
2023/05/30 02:39:24;;;;;;;2.60;1.63;;;;;;;16.19;45.96;97583.03;4895133;28;20342;-79
2023/05/30 02:41:50;;;;;;;5.72;1.60;;;;;;;16.09;45.79;97590.97;4878867;28;20248;-80
2023/05/30 02:44:15;;;;;;;4.68;1.65;;;;;;;16.13;45.71;97592.03;4924627;28;20221;-79
2023/05/30 02:46:40;;;;;;;4.43;1.95;;;;;;;16.32;45.67;97596.66;4895889;28;20651;-80
2023/05/30 02:49:06;;;;;;;3.13;1.52;;;;;;;16.24;45.47;97596.16;4911414;28;20616;-78
2023/05/30 02:51:31;;;;;;;3.58;2.08;;;;;;;16.18;45.98;97594.63;4896089;28;20183;-79
2023/05/30 02:53:57;;;;;;;5.60;2.13;;;;;;;16.21;45.56;97591.47;4913070;28;20186;-79
2023/05/30 02:56:27;;;;;;;5.07;1.88;;;;;;;16.05;45.54;97592.56;4895436;28;20087;-79
2023/05/30 02:58:54;;;;;;;4.55;2.20;;;;;;;15.99;45.88;97598.88;4908712;28;20350;-79
2023/05/30 03:01:19;;;;;;;5.68;2.15;;;;;;;16.12;45.25;97600.16;4915520;28;20417;-78
2023/05/30 03:03:45;;;;;;;3.88;2.05;;;;;;;16.16;45.85;97606.44;4911569;28;20234;-78
2023/05/30 03:06:12;;;;;;;4.97;1.63;;;;;;;16.24;45.39;97600.63;4899601;28;20214;-78
2023/05/30 03:08:37;;;;;;;4.43;1.60;;;;;;;16.08;45.63;97598.06;4911672;28;20200;-78
2023/05/30 03:11:03;;;;;;;5.18;1.98;;;;;;;16.09;45.77;97604.09;4896060;28;20304;-80
2023/05/30 03:13:28;;;;;;;3.95;1.70;;;;;;;16.16;45.37;97598.56;4893774;28;20336;-78
2023/05/30 03:15:54;;;;;;;5.10;1.77;;;;;;;15.96;45.75;97610.72;4907310;28;20364;-79
2023/05/30 03:18:19;;;;;;;4.47;1.70;;;;;;;15.87;45.47;97613.13;4897188;28;20194;-79
2023/05/30 03:20:45;;;;;;;4.30;2.03;;;;;;;15.72;46.21;97621.78;4895261;28;20317;-77
2023/05/30 03:23:10;;;;;;;4.13;2.10;;;;;;;15.53;46.51;97611.06;4909579;28;20448;-79
2023/05/30 03:25:35;;;;;;;7.25;1.90;;;;;;;15.52;46.69;97616.59;4913868;28;20038;-78
2023/05/30 03:28:05;;;;;;;7.65;2.47;;;;;;;15.32;46.92;97610.31;4912455;28;20636;-79
2023/05/30 03:30:32;;;;;;;3.95;2.03;;;;;;;15.79;45.68;97608.41;4915246;28;20248;-78
2023/05/30 03:32:57;;;;;;;4.53;1.92;;;;;;;15.72;46.14;97600.00;4896808;28;20124;-79
2023/05/30 03:35:22;;;;;;;3.65;1.77;;;;;;;15.98;45.67;97615.72;4900044;28;20179;-78
2023/05/30 03:37:48;;;;;;;4.07;1.75;;;;;;;15.83;45.57;97619.16;4899627;28;20296;-79
2023/05/30 03:40:13;;;;;;;7.07;2.03;;;;;;;15.73;45.91;97617.34;4914119;28;20284;-78
2023/05/30 03:42:39;;;;;;;4.72;2.08;;;;;;;15.74;46.34;97622.31;4914724;28;20231;-78
2023/05/30 03:45:05;;;;;;;3.60;1.30;;;;;;;15.67;45.82;97615.78;4924374;28;20293;-79
2023/05/30 03:47:30;;;;;;;6.25;1.67;;;;;;;15.53;46.59;97621.56;4912780;28;20196;-77
2023/05/30 03:49:55;;;;;;;5.43;1.90;;;;;;;15.58;46.30;97610.28;4894591;28;20643;-79
2023/05/30 03:52:21;;;;;;;4.78;2.00;;;;;;;15.48;46.65;97610.31;4895076;28;20293;-78
2023/05/30 03:54:46;;;;;;;3.92;1.58;;;;;;;15.47;46.26;97609.53;4912031;28;20256;-78
2023/05/30 03:57:12;;;;;;;6.13;1.55;;;;;;;15.74;45.78;97603.16;4912563;28;20712;-79
2023/05/30 03:59:37;;;;;;;5.57;2.10;;;;;;;15.69;46.12;97603.94;4897593;28;20344;-78
2023/05/30 04:02:03;;;;;;;5.40;2.08;;;;;;;15.57;46.11;97607.91;4904085;28;20576;-78
2023/05/30 04:04:28;;;;;;;4.82;1.77;;;;;;;15.78;45.89;97608.69;4887316;28;20670;-79
2023/05/30 04:06:53;;;;;;;3.05;1.48;;;;;;;15.71;45.89;97614.19;4896745;28;20283;-78
2023/05/30 04:09:19;;;;;;;4.82;1.92;;;;;;;15.87;45.33;97625.47;4893479;28;20281;-78
2023/05/30 04:11:45;;;;;;;4.60;2.00;;;;;;;15.70;45.71;97615.25;4897028;28;20742;-78
2023/05/30 04:14:10;;;;;;;5.13;1.92;;;;;;;15.43;46.91;97623.44;4897408;28;20218;-77
2023/05/30 04:16:36;;;;;;;5.00;1.90;;;;;;;15.26;47.20;97619.22;4876205;28;20191;-78
2023/05/30 04:19:01;;;;;;;6.22;1.98;;;;;;;15.49;47.25;97612.66;4911871;28;20237;-79
2023/05/30 04:21:27;;;;;;;7.88;2.00;;;;;;;15.49;46.15;97628.41;4913496;28;20280;-77
2023/05/30 04:23:52;;;;;;;2.97;1.92;;;;;;;15.57;46.32;97619.19;4899504;28;20615;-78
2023/05/30 04:26:18;;;;;;;6.03;1.90;;;;;;;15.56;46.26;97622.91;4896001;28;20211;-78
2023/05/30 04:28:43;;;;;;;5.53;1.85;;;;;;;15.64;46.22;97624.94;4899016;28;20197;-78
2023/05/30 04:31:10;;;;;;;4.93;1.95;;;;;;;15.62;46.95;97640.19;4897732;28;20183;-78
2023/05/30 04:33:36;;;;;;;5.35;2.72;;;;;;;15.49;47.14;97633.66;4897770;28;20190;-78
2023/05/30 04:36:06;;;;;;;5.55;1.67;;;;;;;15.74;46.93;97647.78;4896626;28;20211;-78
2023/05/30 04:38:34;;;;;;;4.55;1.58;;;;;;;15.76;46.01;97643.06;4898475;28;20292;-80
2023/05/30 04:41:04;;;;;;;5.15;2.22;;;;;;;15.75;45.97;97641.53;4913281;28;20277;-78
2023/05/30 04:43:30;;;;;;;5.45;2.00;;;;;;;15.75;45.63;97649.41;4913003;28;20253;-78
2023/05/30 04:45:55;;;;;;;3.78;1.83;;;;;;;15.84;46.18;97645.16;4880575;28;20691;-80
2023/05/30 04:48:21;;;;;;;6.30;2.08;;;;;;;15.78;46.04;97641.00;4882062;28;20251;-78
2023/05/30 04:50:47;;;;;;;5.70;1.83;;;;;;;15.97;45.57;97643.81;4893807;28;20313;-78
2023/05/30 04:53:15;;;;;;;7.55;1.92;;;;;;;16.11;45.35;97659.81;4891963;28;20238;-78
2023/05/30 04:55:44;;;;;;;4.90;1.95;;;;;;;16.08;45.87;97655.09;4925365;28;20710;-77
2023/05/30 04:58:11;;;;;;;6.20;1.90;;;;;;;15.91;45.96;97656.16;4873365;28;20380;-78
2023/05/30 05:00:36;;;;;;;4.32;2.15;;;;;;;16.00;45.89;97648.53;4882614;28;20163;-78
2023/05/30 05:03:02;;;;;;;6.45;2.40;;;;;;;15.83;45.97;97654.09;4911499;28;20277;-78
2023/05/30 05:05:28;;;;;;;5.13;2.05;;;;;;;16.09;45.64;97657.44;4907897;28;20218;-78
2023/05/30 05:07:53;;;;;;;4.68;1.85;;;;;;;16.01;46.47;97650.09;4912554;28;20193;-78
2023/05/30 05:10:19;;;;;;;3.95;1.50;;;;;;;16.00;45.20;97656.41;4874065;28;20223;-77
2023/05/30 05:12:44;;;;;;;5.25;1.88;;;;;;;16.09;45.77;97661.88;4908469;28;20042;-79
2023/05/30 05:15:10;;;;;;;5.30;1.38;;;;;;;16.08;46.26;97666.38;4888294;28;20310;-77
2023/05/30 05:17:36;;;;;;;6.93;1.73;;;;;;;16.22;45.75;97677.09;4912166;28;20245;-79
2023/05/30 05:20:05;;;;;;;6.32;2.08;;;;;;;16.30;45.13;97673.13;4879110;28;20181;-79
2023/05/30 05:22:31;;;;;;;5.45;1.90;;;;;;;16.33;45.07;97667.34;4869537;28;20344;-80
2023/05/30 05:24:56;;;;;;;5.70;1.70;;;;;;;16.02;46.10;97661.41;4902811;28;20288;-77
2023/05/30 05:27:22;;;;;;;4.03;1.63;;;;;;;16.02;45.79;97677.97;4879385;28;20088;-78
2023/05/30 05:29:48;;;;;;;4.88;1.90;;;;;;;16.15;45.94;97678.44;4905842;28;20354;-79
2023/05/30 05:32:13;;;;;;;4.53;1.88;;;;;;;16.28;46.58;97670.00;4892382;28;20638;-78
2023/05/30 05:34:39;;;;;;;5.38;1.85;;;;;;;16.46;45.49;97684.38;4891597;28;20267;-78
2023/05/30 05:37:05;;;;;;;5.05;1.33;;;;;;;16.55;45.31;97682.72;4907271;28;20207;-78
2023/05/30 05:39:30;;;;;;;5.15;1.83;;;;;;;16.51;45.40;97684.34;4893824;28;20253;-77
2023/05/30 05:41:56;;;;;;;5.72;2.13;;;;;;;16.35;45.43;97682.81;4895111;28;20639;-78
2023/05/30 05:44:21;;;;;;;5.18;1.75;;;;;;;16.45;45.13;97686.22;4904702;28;20215;-79
2023/05/30 05:46:47;;;;;;;5.35;1.90;;;;;;;16.57;44.51;97683.28;4893909;28;20673;-80
2023/05/30 05:49:12;;;;;;;4.88;1.60;;;;;;;16.45;45.21;97693.28;4894019;28;20632;-78
2023/05/30 05:51:37;;;;;;;6.05;1.70;;;;;;;16.55;45.24;97685.38;4904720;28;20281;-80
2023/05/30 05:54:03;;;;;;;8.60;2.00;;;;;;;16.66;44.62;97694.78;4906668;28;20246;-80
2023/05/30 05:56:28;;;;;;;4.10;1.98;;;;;;;16.71;45.41;97693.16;4911334;28;20663;-80
2023/05/30 05:58:54;;;;;;;4.78;1.60;;;;;;;16.61;44.62;97684.28;4896203;28;20198;-78
2023/05/30 06:01:19;;;;;;;4.63;1.60;;;;;;;16.70;44.32;97679.25;4893896;28;20190;-77
2023/05/30 06:03:44;;;;;;;7.13;2.00;;;;;;;16.58;44.37;97689.31;4875681;28;20150;-79
2023/05/30 06:06:10;;;;;;;5.38;1.75;;;;;;;16.72;44.55;97687.66;4900131;28;20234;-78
2023/05/30 06:08:36;;;;;;;5.75;1.83;;;;;;;16.66;45.30;97686.91;4888627;28;20640;-78
2023/05/30 06:11:01;;;;;;;5.65;1.88;;;;;;;16.60;43.88;97687.97;4887637;28;20289;-78
2023/05/30 06:13:27;;;;;;;4.90;1.80;;;;;;;17.07;44.48;97687.72;4878021;28;20268;-79
2023/05/30 06:15:52;;;;;;;6.75;1.90;;;;;;;16.88;44.06;97693.66;4903542;28;20695;-78
2023/05/30 06:18:17;;;;;;;4.60;1.73;;;;;;;17.11;43.94;97697.44;4880508;28;20329;-80
2023/05/30 06:20:43;;;;;;;5.53;1.70;;;;;;;17.25;43.88;97688.94;4893793;28;20624;-78
2023/05/30 06:23:08;;;;;;;6.30;2.13;;;;;;;17.50;43.68;97688.75;4894754;28;20273;-78
2023/05/30 06:25:33;;;;;;;4.38;1.38;;;;;;;17.93;42.88;97696.78;4893210;28;20273;-78
2023/05/30 06:27:59;;;;;;;3.85;1.95;;;;;;;18.01;43.13;97687.50;4887884;28;20255;-79
2023/05/30 06:30:24;;;;;;;6.57;1.52;;;;;;;17.99;42.52;97689.63;4915196;28;20289;-77
2023/05/30 06:32:50;;;;;;;5.57;2.20;;;;;;;17.62;43.31;97696.28;4891559;28;20099;-79
2023/05/30 06:35:15;;;;;;;8.23;2.88;;;;;;;17.91;42.54;97698.94;4882858;28;20242;-79
2023/05/30 06:37:41;;;;;;;6.60;2.03;;;;;;;17.85;42.71;97694.72;4894645;28;20034;-81
2023/05/30 06:40:07;;;;;;;4.85;2.10;;;;;;;17.59;42.60;97694.19;4894845;28;20599;-80
2023/05/30 06:42:34;;;;;;;6.97;1.90;;;;;;;17.62;43.43;97700.75;4878978;28;20598;-79
2023/05/30 06:45:00;;;;;;;4.78;1.60;;;;;;;17.86;42.98;97696.34;4894749;28;20179;-80
2023/05/30 06:47:25;;;;;;;4.47;1.65;;;;;;;18.17;43.02;97705.78;4908032;28;20647;-79
2023/05/30 06:49:51;;;;;;;4.43;1.90;;;;;;;18.25;42.25;97713.06;4881727;28;20562;-79
2023/05/30 06:52:19;;;;;;;5.43;2.00;;;;;;;18.51;42.45;97716.97;4898458;28;20372;-83
2023/05/30 06:54:46;;;;;;;5.28;1.92;;;;;;;18.57;42.09;97719.56;4869645;28;20265;-79
2023/05/30 06:57:11;;;;;;;4.60;1.83;;;;;;;18.71;41.52;97726.50;4885527;28;20289;-79
2023/05/30 06:59:36;;;;;;;6.40;2.40;;;;;;;18.64;41.24;97720.00;4914710;28;20249;-79
2023/05/30 07:02:02;;;;;;;5.32;2.30;;;;;;;18.45;40.88;97718.09;4909399;28;20144;-79
2023/05/30 07:04:28;;;;;;;4.80;1.88;;;;;;;18.55;41.76;97722.47;4905355;28;20281;-79
2023/05/30 07:06:53;;;;;;;6.10;1.60;;;;;;;18.95;40.48;97707.19;4897873;28;20081;-80
2023/05/30 07:09:19;;;;;;;5.53;2.15;;;;;;;19.25;40.93;97710.47;4896807;28;20236;-79
2023/05/30 07:11:45;;;;;;;5.55;1.83;;;;;;;19.49;39.99;97717.50;4913985;28;20641;-79
2023/05/30 07:14:11;;;;;;;5.60;1.83;;;;;;;19.19;40.12;97714.25;4896460;28;20272;-79
2023/05/30 07:16:37;;;;;;;3.67;2.05;;;;;;;19.34;40.15;97718.53;4897187;28;20371;-80
2023/05/30 07:19:03;;;;;;;3.60;1.67;;;;;;;19.06;39.53;97715.78;4911515;28;20205;-78
2023/05/30 07:21:29;;;;;;;6.22;1.80;;;;;;;19.51;40.22;97712.72;4911349;28;20174;-79
2023/05/30 07:23:55;;;;;;;6.15;2.42;;;;;;;19.41;39.32;97711.03;4897752;28;20791;-80
2023/05/30 07:26:21;;;;;;;5.03;1.60;;;;;;;19.48;40.30;97719.34;4910187;28;20699;-80
2023/05/30 07:28:47;;;;;;;6.68;2.17;;;;;;;19.60;39.30;97714.41;4902674;28;20259;-80
2023/05/30 07:31:12;;;;;;;5.55;2.30;;;;;;;19.58;38.97;97713.91;4910353;28;20298;-79
2023/05/30 07:33:37;;;;;;;4.78;1.80;;;;;;;19.62;39.24;97712.28;4896536;28;20382;-78
2023/05/30 07:36:03;;;;;;;4.00;1.60;;;;;;;19.74;39.00;97719.75;4897165;28;20675;-79
2023/05/30 07:38:28;;;;;;;5.05;1.75;;;;;;;19.39;39.06;97718.44;4898424;28;20300;-78
2023/05/30 07:40:53;;;;;;;3.50;1.80;;;;;;;19.83;38.98;97710.09;4897139;28;20289;-80
2023/05/30 07:43:19;;;;;;;5.25;1.75;;;;;;;20.21;38.93;97715.19;4899770;28;20274;-78
2023/05/30 07:45:44;;;;;;;3.63;1.65;;;;;;;20.26;38.45;97711.69;4912986;28;20206;-79
2023/05/30 07:48:10;;;;;;;4.55;1.77;;;;;;;19.97;37.74;97707.47;4898156;28;20209;-79
2023/05/30 07:50:35;;;;;;;6.10;1.85;;;;;;;20.14;38.53;97703.47;4884944;28;20729;-79
2023/05/30 07:53:00;;;;;;;5.78;1.83;;;;;;;20.32;38.59;97715.00;4903068;28;20271;-80
2023/05/30 07:55:26;;;;;;;3.35;1.77;;;;;;;20.00;38.16;97714.81;4889268;28;20358;-80
2023/05/30 07:57:52;;;;;;;5.78;1.90;;;;;;;20.01;38.46;97726.97;4913678;28;20292;-80
2023/05/30 08:00:17;;;;;;;7.38;2.67;;;;;;;20.29;38.67;97721.69;4898601;28;20180;-80
2023/05/30 08:02:43;;;;;;;5.50;2.00;;;;;;;20.52;38.25;97711.97;4890382;28;20493;-80
2023/05/30 08:05:08;;;;;;;5.40;1.83;;;;;;;20.91;37.72;97712.53;4911883;28;20202;-80
2023/05/30 08:07:34;;;;;;;4.10;1.90;;;;;;;20.81;36.97;97718.81;4888951;28;20599;-79
2023/05/30 08:09:59;;;;;;;6.25;1.77;;;;;;;20.67;37.40;97718.06;4897329;28;20327;-78
2023/05/30 08:12:28;;;;;;;4.95;1.80;;;;;;;20.68;37.39;97720.41;4928743;28;20300;-79
2023/05/30 08:14:55;;;;;;;5.10;2.63;;;;;;;21.17;37.13;97718.03;4896204;28;20734;-79
2023/05/30 08:17:23;;;;;;;4.45;1.65;;;;;;;21.16;36.78;97713.03;4895573;28;20567;-78
2023/05/30 08:19:50;;;;;;;4.47;1.92;;;;;;;21.56;37.16;97726.41;4907084;28;20364;-78
2023/05/30 08:22:15;;;;;;;6.25;2.13;;;;;;;21.75;36.00;97719.06;4903242;28;20321;-77
2023/05/30 08:24:41;;;;;;;3.63;2.10;;;;;;;21.83;35.47;97715.66;4897045;28;20300;-80
2023/05/30 08:27:08;;;;;;;5.38;2.00;;;;;;;21.52;35.57;97720.94;4912572;28;20690;-81
2023/05/30 08:29:34;;;;;;;6.50;2.10;;;;;;;21.07;36.63;97705.78;4896247;28;20371;-77
2023/05/30 08:31:59;;;;;;;5.95;2.10;;;;;;;21.61;37.29;97719.13;4893149;28;20186;-77
2023/05/30 08:34:25;;;;;;;5.18;1.92;;;;;;;21.46;36.62;97712.34;4911975;28;20297;-77
2023/05/30 08:36:53;;;;;;;4.80;2.10;;;;;;;21.39;37.18;97724.41;4888640;28;20211;-77
2023/05/30 08:39:19;;;;;;;4.65;1.70;;;;;;;21.52;36.97;97715.63;4913585;28;20654;-77
2023/05/30 08:41:45;;;;;;;3.60;1.95;;;;;;;21.63;36.70;97714.31;4913354;28;20213;-77
2023/05/30 08:44:10;;;;;;;3.58;1.83;;;;;;;21.99;36.59;97717.91;4910424;28;20273;-79
2023/05/30 08:46:42;;;;;;;5.18;2.10;;;;;;;22.73;35.78;97711.91;4893938;28;20224;-80
2023/05/30 08:49:18;;;;;;;3.75;1.73;;;;;;;22.86;34.28;97712.06;4909535;28;20345;-81
2023/05/30 08:51:43;;;;;;;6.10;2.20;;;;;;;22.80;34.82;97700.81;4893322;28;20348;-81
2023/05/30 08:54:20;;;;;;;4.88;2.10;;;;;;;23.19;35.01;97707.88;4895191;28;20286;-80
2023/05/30 08:56:47;;;;;;;3.70;2.10;;;;;;;23.35;34.98;97710.06;4890799;28;20774;-80
2023/05/30 08:59:15;;;;;;;4.45;1.75;;;;;;;23.07;34.87;97694.47;4912425;28;20269;-80
2023/05/30 09:01:41;;;;;;;4.25;2.28;;;;;;;23.46;34.77;97700.69;4885410;28;20732;-80
2023/05/30 09:04:07;;;;;;;5.18;2.35;;;;;;;23.46;33.76;97697.22;4895090;28;20464;-79
2023/05/30 09:06:36;;;;;;;3.92;2.50;;;;;;;23.52;33.82;97709.25;4906178;28;20334;-81
2023/05/30 09:09:01;;;;;;;5.22;2.33;;;;;;;23.33;34.07;97704.28;4922147;28;20593;-79
2023/05/30 09:11:27;;;;;;;5.70;2.25;;;;;;;23.62;33.46;97695.63;4906202;28;20244;-79
2023/05/30 09:13:53;;;;;;;6.68;2.25;;;;;;;23.47;33.33;97709.41;4903328;28;20785;-78
2023/05/30 09:16:18;;;;;;;5.65;1.90;;;;;;;23.69;33.44;97705.78;4910777;28;20190;-78
2023/05/30 09:18:44;;;;;;;2.88;2.10;;;;;;;23.74;34.39;97703.72;4894795;28;20580;-79
2023/05/30 09:21:09;;;;;;;4.25;1.80;;;;;;;24.21;33.73;97700.28;4911679;28;20371;-79
2023/05/30 09:23:36;;;;;;;6.05;2.20;;;;;;;23.58;32.90;97715.19;4901855;28;20170;-80
2023/05/30 09:26:04;;;;;;;3.78;2.17;;;;;;;23.44;33.64;97721.47;4890852;28;20350;-80
2023/05/30 09:28:32;;;;;;;4.20;2.15;;;;;;;23.63;33.35;97723.78;4901332;28;20396;-79
2023/05/30 09:31:02;;;;;;;5.25;2.00;;;;;;;23.65;33.53;97721.59;4891768;28;20709;-79
2023/05/30 09:33:49;;;;;;;6.80;2.28;;;;;;;24.25;32.91;97716.41;4890531;28;20569;-80
2023/05/30 09:36:23;;;;;;;5.63;2.15;;;;;;;24.23;32.50;97708.75;4909758;28;20285;-80
2023/05/30 09:38:52;;;;;;;5.95;2.33;;;;;;;24.16;31.70;97719.09;4895500;28;20253;-78
2023/05/30 09:41:17;;;;;;;6.72;2.40;;;;;;;24.08;32.59;97711.94;4901177;28;20312;-78
2023/05/30 09:43:42;;;;;;;6.05;2.50;;;;;;;23.85;32.33;97708.72;4873569;28;20767;-80
2023/05/30 09:46:08;;;;;;;4.68;2.00;;;;;;;23.84;32.44;97717.81;4892078;28;20205;-79
2023/05/30 09:48:33;;;;;;;4.28;2.33;;;;;;;24.24;32.32;97728.91;4905083;28;20303;-81
2023/05/30 09:51:00;;;;;;;4.15;2.13;;;;;;;24.59;32.07;97726.13;4875515;28;20243;-79
2023/05/30 09:53:30;;;;;;;7.40;2.10;;;;;;;24.63;31.44;97731.56;4893579;28;20187;-81
2023/05/30 09:55:56;;;;;;;4.68;2.30;;;;;;;24.78;31.41;97715.03;4885626;28;20198;-79
2023/05/30 09:58:23;;;;;;;5.93;2.97;;;;;;;24.81;31.18;97717.03;4892566;28;20221;-79
2023/05/30 10:00:55;;;;;;;6.03;2.38;;;;;;;25.08;31.00;97714.94;4893085;28;20634;-78
2023/05/30 10:03:39;;;;;;;4.80;2.40;;;;;;;25.14;30.47;97716.31;4892411;28;20819;-80
2023/05/30 10:06:15;;;;;;;4.97;2.35;;;;;;;24.65;30.62;97721.38;4887399;28;20179;-80
2023/05/30 10:08:44;;;;;;;5.85;2.60;;;;;;;24.46;31.32;97721.78;4908208;28;20154;-81
2023/05/30 10:11:10;;;;;;;5.53;2.33;;;;;;;24.38;31.01;97718.03;4893819;28;20198;-80
2023/05/30 10:13:36;;;;;;;5.80;2.10;;;;;;;24.34;31.13;97714.47;4888519;28;20227;-78
2023/05/30 10:16:02;;;;;;;5.07;2.25;;;;;;;24.53;30.75;97711.38;4906980;28;20187;-79
2023/05/30 10:18:29;;;;;;;3.70;2.30;;;;;;;24.65;30.86;97724.03;4893048;28;20110;-80
2023/05/30 10:20:56;;;;;;;5.85;2.35;;;;;;;24.26;30.86;97720.63;4894252;28;20206;-79
2023/05/30 10:23:21;;;;;;;4.53;2.55;;;;;;;24.74;30.70;97716.75;4904709;28;20222;-78
2023/05/30 10:25:54;;;;;;;3.83;1.88;;;;;;;25.12;30.22;97710.53;4922779;28;20163;-80
2023/05/30 10:28:23;;;;;;;4.35;2.13;;;;;;;25.07;30.34;97701.94;4913451;28;20195;-79
2023/05/30 10:30:50;;;;;;;4.18;2.08;;;;;;;25.54;29.63;97697.13;4897422;28;20149;-79
2023/05/30 10:33:17;;;;;;;5.32;2.15;;;;;;;26.29;30.12;97706.81;4897127;28;20225;-79
2023/05/30 10:35:42;;;;;;;5.38;2.53;;;;;;;25.81;29.66;97710.97;4883210;28;20203;-79
2023/05/30 10:38:11;;;;;;;5.30;2.78;;;;;;;25.48;30.99;97700.34;4875963;28;20219;-79
2023/05/30 10:40:49;;;;;;;5.25;2.67;;;;;;;25.92;30.24;97698.75;4924314;28;20268;-78
2023/05/30 10:43:14;;;;;;;4.53;2.45;;;;;;;26.31;30.37;97696.56;4895855;28;20189;-79
2023/05/30 10:46:00;;;;;;;4.50;2.65;;;;;;;26.27;29.48;97695.69;4914524;28;20112;-79
2023/05/30 10:48:34;;;;;;;3.78;2.20;;;;;;;26.52;28.90;97698.31;4884122;28;20201;-79
2023/05/30 10:51:00;;;;;;;6.95;2.63;;;;;;;26.61;28.61;97693.63;4913405;28;20449;-81
2023/05/30 10:53:26;;;;;;;4.60;2.22;;;;;;;27.05;28.23;97688.41;4898113;28;20316;-80
2023/05/30 10:55:51;;;;;;;7.20;3.15;;;;;;;26.92;28.61;97684.22;4914199;28;20159;-80
2023/05/30 10:58:36;;;;;;;3.83;2.55;;;;;;;26.96;27.78;97687.03;4896996;28;20210;-78
2023/05/30 11:01:27;;;;;;;6.22;2.92;;;;;;;26.14;28.36;97686.13;4906428;28;20629;-79
2023/05/30 11:04:08;;;;;;;4.45;2.30;;;;;;;26.57;28.26;97682.06;4914001;28;20289;-80
2023/05/30 11:06:45;;;;;;;4.18;2.40;;;;;;;26.98;30.03;97682.09;4893258;28;20211;-78
2023/05/30 11:09:17;;;;;;;4.40;2.47;;;;;;;27.29;27.58;97678.75;4914872;28;20272;-80
2023/05/30 11:11:55;;;;;;;4.95;2.30;;;;;;;27.25;27.86;97675.19;4891023;28;20210;-79
2023/05/30 11:14:28;;;;;;;7.68;2.30;;;;;;;26.86;27.03;97682.91;4898154;28;20455;-78
2023/05/30 11:16:59;;;;;;;6.47;2.70;;;;;;;26.53;26.96;97683.88;4911114;28;20253;-79
2023/05/30 11:19:35;;;;;;;7.13;2.45;;;;;;;26.51;27.31;97672.72;4927461;28;20314;-80
2023/05/30 11:22:03;;;;;;;3.90;2.05;;;;;;;25.89;27.46;97662.09;4899522;28;20268;-79
2023/05/30 11:24:30;;;;;;;4.97;2.47;;;;;;;25.42;28.97;97665.13;4896177;28;20175;-79
2023/05/30 11:27:06;;;;;;;5.47;2.58;;;;;;;25.38;29.02;97661.56;4893742;28;20452;-78
2023/05/30 11:29:53;;;;;;;4.13;2.00;;;;;;;25.04;29.68;97658.09;4925035;28;20318;-79
2023/05/30 11:32:22;;;;;;;6.18;2.60;;;;;;;24.77;29.55;97660.19;4879648;28;20214;-79
2023/05/30 11:34:57;;;;;;;5.40;2.30;;;;;;;24.85;29.16;97655.91;4901517;28;20194;-79